sensor_id;sensor_type;location;lat;lon;timestamp;temperature;humidity
33105;DHT22;19476;51.448;6.674;2023-03-19T00:01:07;16.90;52.90
33105;DHT22;19476;51.448;6.674;2023-03-19T00:03:39;16.90;53.10
33105;DHT22;19476;51.448;6.674;2023-03-19T00:06:07;16.90;53.20
33105;DHT22;19476;51.448;6.674;2023-03-19T00:08:33;16.90;53.10
33105;DHT22;19476;51.448;6.674;2023-03-19T00:11:05;16.90;53.00
33105;DHT22;19476;51.448;6.674;2023-03-19T00:13:42;17.00;53.60
33105;DHT22;19476;51.448;6.674;2023-03-19T00:16:35;17.00;53.60
33105;DHT22;19476;51.448;6.674;2023-03-19T00:19:14;17.00;53.70
33105;DHT22;19476;51.448;6.674;2023-03-19T00:22:05;17.10;53.90
33105;DHT22;19476;51.448;6.674;2023-03-19T00:25:03;17.10;53.90
33105;DHT22;19476;51.448;6.674;2023-03-19T00:27:29;17.10;54.00
33105;DHT22;19476;51.448;6.674;2023-03-19T00:29:55;17.10;53.50
33105;DHT22;19476;51.448;6.674;2023-03-19T00:32:52;17.10;53.70
33105;DHT22;19476;51.448;6.674;2023-03-19T00:38:41;17.20;54.80
33105;DHT22;19476;51.448;6.674;2023-03-19T00:41:07;17.20;54.00
33105;DHT22;19476;51.448;6.674;2023-03-19T00:43:55;17.20;54.00
33105;DHT22;19476;51.448;6.674;2023-03-19T00:46:25;17.20;54.80
33105;DHT22;19476;51.448;6.674;2023-03-19T00:55:45;17.20;54.40
33105;DHT22;19476;51.448;6.674;2023-03-19T01:01:41;17.00;54.50
33105;DHT22;19476;51.448;6.674;2023-03-19T01:04:07;17.00;54.10
33105;DHT22;19476;51.448;6.674;2023-03-19T01:06:57;16.90;53.90
33105;DHT22;19476;51.448;6.674;2023-03-19T01:09:26;16.90;54.80
33105;DHT22;19476;51.448;6.674;2023-03-19T01:11:52;16.70;54.10
33105;DHT22;19476;51.448;6.674;2023-03-19T01:14:18;16.70;54.20
33105;DHT22;19476;51.448;6.674;2023-03-19T01:16:44;16.70;54.40
33105;DHT22;19476;51.448;6.674;2023-03-19T01:19:10;16.60;54.50
33105;DHT22;19476;51.448;6.674;2023-03-19T01:21:37;16.60;54.70
33105;DHT22;19476;51.448;6.674;2023-03-19T01:24:03;16.60;54.70
33105;DHT22;19476;51.448;6.674;2023-03-19T01:26:28;16.60;55.30
33105;DHT22;19476;51.448;6.674;2023-03-19T01:28:54;16.60;54.80
33105;DHT22;19476;51.448;6.674;2023-03-19T01:31:21;16.60;55.00
33105;DHT22;19476;51.448;6.674;2023-03-19T01:33:47;16.50;54.90
33105;DHT22;19476;51.448;6.674;2023-03-19T01:36:13;16.50;55.00
33105;DHT22;19476;51.448;6.674;2023-03-19T01:38:39;16.50;55.10
33105;DHT22;19476;51.448;6.674;2023-03-19T01:41:05;16.50;55.10
33105;DHT22;19476;51.448;6.674;2023-03-19T01:43:31;16.40;55.20
33105;DHT22;19476;51.448;6.674;2023-03-19T01:48:47;16.40;55.80
33105;DHT22;19476;51.448;6.674;2023-03-19T01:51:16;16.40;55.50
33105;DHT22;19476;51.448;6.674;2023-03-19T01:53:48;16.30;55.60
33105;DHT22;19476;51.448;6.674;2023-03-19T01:56:15;16.30;55.80
33105;DHT22;19476;51.448;6.674;2023-03-19T01:58:45;16.30;55.60
33105;DHT22;19476;51.448;6.674;2023-03-19T02:01:11;16.30;55.80
33105;DHT22;19476;51.448;6.674;2023-03-19T02:03:37;16.30;55.60
33105;DHT22;19476;51.448;6.674;2023-03-19T02:06:04;16.30;55.70
33105;DHT22;19476;51.448;6.674;2023-03-19T02:08:31;16.30;55.80
33105;DHT22;19476;51.448;6.674;2023-03-19T02:10:58;16.40;55.80
33105;DHT22;19476;51.448;6.674;2023-03-19T02:13:26;16.30;55.80
33105;DHT22;19476;51.448;6.674;2023-03-19T02:15:52;16.40;55.80
33105;DHT22;19476;51.448;6.674;2023-03-19T02:18:20;16.40;55.80
33105;DHT22;19476;51.448;6.674;2023-03-19T02:26:13;16.40;56.00
33105;DHT22;19476;51.448;6.674;2023-03-19T02:28:42;16.40;55.90
33105;DHT22;19476;51.448;6.674;2023-03-19T02:31:09;16.40;55.70
33105;DHT22;19476;51.448;6.674;2023-03-19T02:33:35;16.40;55.60
33105;DHT22;19476;51.448;6.674;2023-03-19T02:36:03;16.40;55.50
33105;DHT22;19476;51.448;6.674;2023-03-19T02:38:32;16.40;55.50
33105;DHT22;19476;51.448;6.674;2023-03-19T02:41:04;16.50;55.60
33105;DHT22;19476;51.448;6.674;2023-03-19T02:43:35;16.50;55.60
33105;DHT22;19476;51.448;6.674;2023-03-19T02:46:02;16.50;55.60
33105;DHT22;19476;51.448;6.674;2023-03-19T02:48:28;16.40;55.30
33105;DHT22;19476;51.448;6.674;2023-03-19T02:50:54;16.50;55.20
33105;DHT22;19476;51.448;6.674;2023-03-19T02:53:21;16.50;55.20
33105;DHT22;19476;51.448;6.674;2023-03-19T02:55:47;16.50;55.00
33105;DHT22;19476;51.448;6.674;2023-03-19T02:58:13;16.50;54.90
33105;DHT22;19476;51.448;6.674;2023-03-19T03:00:39;16.50;54.80
33105;DHT22;19476;51.448;6.674;2023-03-19T03:03:06;16.40;54.80
33105;DHT22;19476;51.448;6.674;2023-03-19T03:05:33;16.50;54.90
33105;DHT22;19476;51.448;6.674;2023-03-19T03:07:59;16.50;54.90
33105;DHT22;19476;51.448;6.674;2023-03-19T03:10:25;16.50;54.80
33105;DHT22;19476;51.448;6.674;2023-03-19T03:12:50;16.40;54.80
33105;DHT22;19476;51.448;6.674;2023-03-19T03:15:17;16.40;54.80
33105;DHT22;19476;51.448;6.674;2023-03-19T03:17:44;16.40;54.80
33105;DHT22;19476;51.448;6.674;2023-03-19T03:20:12;16.50;54.90
33105;DHT22;19476;51.448;6.674;2023-03-19T03:22:39;16.40;54.80
33105;DHT22;19476;51.448;6.674;2023-03-19T03:25:05;16.40;54.70
33105;DHT22;19476;51.448;6.674;2023-03-19T03:27:32;16.40;54.60
33105;DHT22;19476;51.448;6.674;2023-03-19T03:29:58;16.50;54.60
33105;DHT22;19476;51.448;6.674;2023-03-19T03:32:24;16.50;54.50
33105;DHT22;19476;51.448;6.674;2023-03-19T03:34:50;16.50;54.50
33105;DHT22;19476;51.448;6.674;2023-03-19T03:37:15;16.50;54.40
33105;DHT22;19476;51.448;6.674;2023-03-19T03:39:42;16.50;54.40
33105;DHT22;19476;51.448;6.674;2023-03-19T03:42:08;16.50;54.20
33105;DHT22;19476;51.448;6.674;2023-03-19T03:44:34;16.50;54.30
33105;DHT22;19476;51.448;6.674;2023-03-19T03:47:00;16.50;54.20
33105;DHT22;19476;51.448;6.674;2023-03-19T03:49:26;16.50;54.20
33105;DHT22;19476;51.448;6.674;2023-03-19T03:51:52;16.60;54.10
33105;DHT22;19476;51.448;6.674;2023-03-19T03:54:18;16.60;54.10
33105;DHT22;19476;51.448;6.674;2023-03-19T03:56:43;16.60;54.10
33105;DHT22;19476;51.448;6.674;2023-03-19T03:59:09;16.50;54.00
33105;DHT22;19476;51.448;6.674;2023-03-19T04:01:35;16.60;54.00
33105;DHT22;19476;51.448;6.674;2023-03-19T04:04:01;16.60;54.00
33105;DHT22;19476;51.448;6.674;2023-03-19T04:06:27;16.60;54.00
33105;DHT22;19476;51.448;6.674;2023-03-19T04:08:53;16.60;54.00
33105;DHT22;19476;51.448;6.674;2023-03-19T04:11:19;16.60;53.90
33105;DHT22;19476;51.448;6.674;2023-03-19T04:13:45;16.60;54.00
33105;DHT22;19476;51.448;6.674;2023-03-19T04:16:11;16.60;53.90
33105;DHT22;19476;51.448;6.674;2023-03-19T04:18:38;16.60;53.90
33105;DHT22;19476;51.448;6.674;2023-03-19T04:21:05;16.60;53.90
33105;DHT22;19476;51.448;6.674;2023-03-19T04:23:31;16.60;53.90
33105;DHT22;19476;51.448;6.674;2023-03-19T04:26:01;16.60;53.80
33105;DHT22;19476;51.448;6.674;2023-03-19T04:28:28;16.60;54.00
33105;DHT22;19476;51.448;6.674;2023-03-19T04:31:01;16.60;53.80
33105;DHT22;19476;51.448;6.674;2023-03-19T04:33:28;16.60;54.10
33105;DHT22;19476;51.448;6.674;2023-03-19T04:35:54;16.60;53.90
33105;DHT22;19476;51.448;6.674;2023-03-19T04:38:21;16.60;54.00
33105;DHT22;19476;51.448;6.674;2023-03-19T04:40:48;16.60;54.00
33105;DHT22;19476;51.448;6.674;2023-03-19T04:43:14;16.50;53.90
33105;DHT22;19476;51.448;6.674;2023-03-19T04:45:40;16.50;54.00
33105;DHT22;19476;51.448;6.674;2023-03-19T04:48:06;16.50;54.00
33105;DHT22;19476;51.448;6.674;2023-03-19T04:50:33;16.60;54.10
33105;DHT22;19476;51.448;6.674;2023-03-19T04:52:59;16.50;54.20
33105;DHT22;19476;51.448;6.674;2023-03-19T04:55:25;16.50;54.20
33105;DHT22;19476;51.448;6.674;2023-03-19T04:57:51;16.50;54.20
33105;DHT22;19476;51.448;6.674;2023-03-19T05:00:17;16.50;54.20
33105;DHT22;19476;51.448;6.674;2023-03-19T05:02:43;16.50;54.20
33105;DHT22;19476;51.448;6.674;2023-03-19T05:05:09;16.50;54.30
33105;DHT22;19476;51.448;6.674;2023-03-19T05:07:41;16.50;54.40
33105;DHT22;19476;51.448;6.674;2023-03-19T05:10:08;16.50;54.40
33105;DHT22;19476;51.448;6.674;2023-03-19T05:12:34;16.50;54.60
33105;DHT22;19476;51.448;6.674;2023-03-19T05:15:01;16.60;54.70
33105;DHT22;19476;51.448;6.674;2023-03-19T05:17:30;16.50;54.70
33105;DHT22;19476;51.448;6.674;2023-03-19T05:19:56;16.50;54.70
33105;DHT22;19476;51.448;6.674;2023-03-19T05:22:22;16.50;54.70
33105;DHT22;19476;51.448;6.674;2023-03-19T05:24:48;16.60;54.80
33105;DHT22;19476;51.448;6.674;2023-03-19T05:27:14;16.50;54.80
33105;DHT22;19476;51.448;6.674;2023-03-19T05:29:41;16.50;55.00
33105;DHT22;19476;51.448;6.674;2023-03-19T05:32:07;16.50;55.10
33105;DHT22;19476;51.448;6.674;2023-03-19T05:34:35;16.50;55.70
33105;DHT22;19476;51.448;6.674;2023-03-19T05:37:01;16.60;55.20
33105;DHT22;19476;51.448;6.674;2023-03-19T05:39:27;16.50;55.30
33105;DHT22;19476;51.448;6.674;2023-03-19T05:41:52;16.60;55.40
33105;DHT22;19476;51.448;6.674;2023-03-19T05:44:18;16.50;55.40
33105;DHT22;19476;51.448;6.674;2023-03-19T05:46:46;16.50;55.50
33105;DHT22;19476;51.448;6.674;2023-03-19T05:49:12;16.60;55.70
33105;DHT22;19476;51.448;6.674;2023-03-19T05:51:38;16.50;55.60
33105;DHT22;19476;51.448;6.674;2023-03-19T05:54:04;16.50;55.60
33105;DHT22;19476;51.448;6.674;2023-03-19T05:56:30;16.50;55.70
33105;DHT22;19476;51.448;6.674;2023-03-19T05:58:56;16.50;55.80
33105;DHT22;19476;51.448;6.674;2023-03-19T06:01:22;16.50;55.90
33105;DHT22;19476;51.448;6.674;2023-03-19T06:03:47;16.50;56.00
33105;DHT22;19476;51.448;6.674;2023-03-19T06:06:13;16.50;56.10
33105;DHT22;19476;51.448;6.674;2023-03-19T06:08:39;16.50;56.30
33105;DHT22;19476;51.448;6.674;2023-03-19T06:11:05;16.40;56.40
33105;DHT22;19476;51.448;6.674;2023-03-19T06:13:32;16.40;56.50
33105;DHT22;19476;51.448;6.674;2023-03-19T06:15:58;16.40;56.80
33105;DHT22;19476;51.448;6.674;2023-03-19T06:18:23;16.40;56.90
33105;DHT22;19476;51.448;6.674;2023-03-19T06:20:49;16.40;57.00
33105;DHT22;19476;51.448;6.674;2023-03-19T06:23:15;16.40;57.10
33105;DHT22;19476;51.448;6.674;2023-03-19T06:25:41;16.40;57.20
33105;DHT22;19476;51.448;6.674;2023-03-19T06:28:07;16.40;57.30
33105;DHT22;19476;51.448;6.674;2023-03-19T06:30:32;16.50;57.40
33105;DHT22;19476;51.448;6.674;2023-03-19T06:32:59;16.40;57.40
33105;DHT22;19476;51.448;6.674;2023-03-19T06:35:24;16.40;57.50
33105;DHT22;19476;51.448;6.674;2023-03-19T06:37:51;16.50;57.60
33105;DHT22;19476;51.448;6.674;2023-03-19T06:40:17;16.50;57.50
33105;DHT22;19476;51.448;6.674;2023-03-19T06:42:44;16.50;57.60
33105;DHT22;19476;51.448;6.674;2023-03-19T06:45:11;16.40;57.70
33105;DHT22;19476;51.448;6.674;2023-03-19T06:47:40;16.50;57.80
33105;DHT22;19476;51.448;6.674;2023-03-19T06:50:06;16.50;58.00
33105;DHT22;19476;51.448;6.674;2023-03-19T06:52:32;16.50;57.80
33105;DHT22;19476;51.448;6.674;2023-03-19T06:54:58;16.50;57.80
33105;DHT22;19476;51.448;6.674;2023-03-19T06:57:24;16.50;57.90
33105;DHT22;19476;51.448;6.674;2023-03-19T06:59:50;16.50;58.00
33105;DHT22;19476;51.448;6.674;2023-03-19T07:02:16;16.70;58.10
33105;DHT22;19476;51.448;6.674;2023-03-19T07:04:41;16.50;58.10
33105;DHT22;19476;51.448;6.674;2023-03-19T07:07:07;16.50;58.20
33105;DHT22;19476;51.448;6.674;2023-03-19T07:09:33;16.50;58.10
33105;DHT22;19476;51.448;6.674;2023-03-19T07:15:20;16.50;59.10
33105;DHT22;19476;51.448;6.674;2023-03-19T07:17:47;16.50;58.20
33105;DHT22;19476;51.448;6.674;2023-03-19T07:20:14;16.50;58.50
33105;DHT22;19476;51.448;6.674;2023-03-19T07:22:39;16.50;58.40
33105;DHT22;19476;51.448;6.674;2023-03-19T07:25:06;16.50;58.50
33105;DHT22;19476;51.448;6.674;2023-03-19T07:27:32;16.50;58.50
33105;DHT22;19476;51.448;6.674;2023-03-19T07:29:58;16.50;58.50
33105;DHT22;19476;51.448;6.674;2023-03-19T07:32:24;16.60;58.60
33105;DHT22;19476;51.448;6.674;2023-03-19T07:34:50;16.60;58.60
33105;DHT22;19476;51.448;6.674;2023-03-19T07:37:19;16.60;58.60
33105;DHT22;19476;51.448;6.674;2023-03-19T07:39:45;16.70;58.80
33105;DHT22;19476;51.448;6.674;2023-03-19T07:42:11;16.70;58.60
33105;DHT22;19476;51.448;6.674;2023-03-19T07:44:37;16.70;58.50
33105;DHT22;19476;51.448;6.674;2023-03-19T07:47:03;16.80;58.60
33105;DHT22;19476;51.448;6.674;2023-03-19T07:49:28;16.80;58.60
33105;DHT22;19476;51.448;6.674;2023-03-19T07:51:54;16.80;58.50
33105;DHT22;19476;51.448;6.674;2023-03-19T07:54:20;16.90;58.60
33105;DHT22;19476;51.448;6.674;2023-03-19T07:56:48;16.90;58.70
33105;DHT22;19476;51.448;6.674;2023-03-19T07:59:14;16.90;58.50
33105;DHT22;19476;51.448;6.674;2023-03-19T08:01:39;16.90;58.50
33105;DHT22;19476;51.448;6.674;2023-03-19T08:04:05;16.90;58.40
33105;DHT22;19476;51.448;6.674;2023-03-19T08:06:31;17.00;58.50
33105;DHT22;19476;51.448;6.674;2023-03-19T08:08:59;17.00;58.50
33105;DHT22;19476;51.448;6.674;2023-03-19T08:11:25;17.00;58.50
33105;DHT22;19476;51.448;6.674;2023-03-19T08:13:50;17.00;58.50
33105;DHT22;19476;51.448;6.674;2023-03-19T08:16:16;17.10;58.50
33105;DHT22;19476;51.448;6.674;2023-03-19T08:18:42;17.10;58.40
33105;DHT22;19476;51.448;6.674;2023-03-19T08:21:08;17.10;58.50
33105;DHT22;19476;51.448;6.674;2023-03-19T08:23:33;17.20;58.50
33105;DHT22;19476;51.448;6.674;2023-03-19T08:26:00;17.20;58.50
33105;DHT22;19476;51.448;6.674;2023-03-19T08:28:26;17.20;58.50
33105;DHT22;19476;51.448;6.674;2023-03-19T08:30:52;17.20;58.40
33105;DHT22;19476;51.448;6.674;2023-03-19T08:33:20;17.30;58.40
33105;DHT22;19476;51.448;6.674;2023-03-19T08:35:46;17.30;58.20
33105;DHT22;19476;51.448;6.674;2023-03-19T08:38:11;17.30;58.20
33105;DHT22;19476;51.448;6.674;2023-03-19T08:40:38;17.30;58.00
33105;DHT22;19476;51.448;6.674;2023-03-19T08:43:03;17.30;57.90
33105;DHT22;19476;51.448;6.674;2023-03-19T08:45:30;17.30;57.90
33105;DHT22;19476;51.448;6.674;2023-03-19T08:47:55;17.40;58.10
33105;DHT22;19476;51.448;6.674;2023-03-19T08:50:22;17.40;58.00
33105;DHT22;19476;51.448;6.674;2023-03-19T08:52:48;17.40;58.00
33105;DHT22;19476;51.448;6.674;2023-03-19T08:55:14;17.40;58.00
33105;DHT22;19476;51.448;6.674;2023-03-19T08:57:40;17.50;57.90
33105;DHT22;19476;51.448;6.674;2023-03-19T09:00:07;17.50;57.70
33105;DHT22;19476;51.448;6.674;2023-03-19T09:02:33;17.50;57.90
33105;DHT22;19476;51.448;6.674;2023-03-19T09:04:59;17.50;57.80
33105;DHT22;19476;51.448;6.674;2023-03-19T09:07:25;17.60;58.00
33105;DHT22;19476;51.448;6.674;2023-03-19T09:09:50;17.60;57.90
33105;DHT22;19476;51.448;6.674;2023-03-19T09:12:16;17.70;57.90
33105;DHT22;19476;51.448;6.674;2023-03-19T09:14:42;17.70;57.90
33105;DHT22;19476;51.448;6.674;2023-03-19T09:17:09;17.70;57.90
33105;DHT22;19476;51.448;6.674;2023-03-19T09:19:36;17.80;57.80
33105;DHT22;19476;51.448;6.674;2023-03-19T09:22:11;17.80;57.60
33105;DHT22;19476;51.448;6.674;2023-03-19T09:24:37;17.80;57.50
33105;DHT22;19476;51.448;6.674;2023-03-19T09:27:03;17.80;57.30
33105;DHT22;19476;51.448;6.674;2023-03-19T09:29:28;17.80;57.30
33105;DHT22;19476;51.448;6.674;2023-03-19T09:31:55;17.80;57.30
33105;DHT22;19476;51.448;6.674;2023-03-19T09:34:20;17.80;57.30
33105;DHT22;19476;51.448;6.674;2023-03-19T09:36:46;17.80;57.30
33105;DHT22;19476;51.448;6.674;2023-03-19T09:39:15;17.80;57.40
33105;DHT22;19476;51.448;6.674;2023-03-19T09:44:31;17.70;57.70
33105;DHT22;19476;51.448;6.674;2023-03-19T09:49:27;17.70;57.60
33105;DHT22;19476;51.448;6.674;2023-03-19T09:51:58;17.70;57.80
33105;DHT22;19476;51.448;6.674;2023-03-19T09:54:50;17.70;57.80
33105;DHT22;19476;51.448;6.674;2023-03-19T09:57:18;17.70;57.80
33105;DHT22;19476;51.448;6.674;2023-03-19T09:59:45;17.70;57.60
33105;DHT22;19476;51.448;6.674;2023-03-19T10:02:39;17.70;57.50
33105;DHT22;19476;51.448;6.674;2023-03-19T10:05:21;17.70;57.60
33105;DHT22;19476;51.448;6.674;2023-03-19T10:08:03;17.70;57.60
33105;DHT22;19476;51.448;6.674;2023-03-19T10:11:19;17.80;57.50
33105;DHT22;19476;51.448;6.674;2023-03-19T10:16:45;17.80;56.90
33105;DHT22;19476;51.448;6.674;2023-03-19T10:19:15;17.80;56.80
33105;DHT22;19476;51.448;6.674;2023-03-19T10:21:54;17.80;56.70
33105;DHT22;19476;51.448;6.674;2023-03-19T10:24:33;17.80;56.50
33105;DHT22;19476;51.448;6.674;2023-03-19T10:27:07;17.80;56.60
33105;DHT22;19476;51.448;6.674;2023-03-19T10:29:34;17.80;56.50
33105;DHT22;19476;51.448;6.674;2023-03-19T10:34:43;17.80;56.20
33105;DHT22;19476;51.448;6.674;2023-03-19T10:39:39;17.80;56.30
33105;DHT22;19476;51.448;6.674;2023-03-19T10:47:37;17.90;55.80
33105;DHT22;19476;51.448;6.674;2023-03-19T10:50:03;17.90;55.70
33105;DHT22;19476;51.448;6.674;2023-03-19T10:52:36;17.90;56.20
33105;DHT22;19476;51.448;6.674;2023-03-19T10:55:21;17.90;55.60
33105;DHT22;19476;51.448;6.674;2023-03-19T10:57:49;18.00;55.50
33105;DHT22;19476;51.448;6.674;2023-03-19T11:00:22;18.10;55.70
33105;DHT22;19476;51.448;6.674;2023-03-19T11:02:51;18.10;55.10
33105;DHT22;19476;51.448;6.674;2023-03-19T11:05:24;18.20;55.30
33105;DHT22;19476;51.448;6.674;2023-03-19T11:08:04;18.30;54.80
33105;DHT22;19476;51.448;6.674;2023-03-19T11:10:33;18.40;54.30
33105;DHT22;19476;51.448;6.674;2023-03-19T11:15:38;18.60;54.30
33105;DHT22;19476;51.448;6.674;2023-03-19T11:18:13;18.70;53.40
33105;DHT22;19476;51.448;6.674;2023-03-19T11:20:41;18.70;53.40
33105;DHT22;19476;51.448;6.674;2023-03-19T11:23:17;18.80;53.20
33105;DHT22;19476;51.448;6.674;2023-03-19T11:25:51;18.80;53.00
33105;DHT22;19476;51.448;6.674;2023-03-19T11:28:19;18.70;52.80
33105;DHT22;19476;51.448;6.674;2023-03-19T11:33:34;18.80;52.60
33105;DHT22;19476;51.448;6.674;2023-03-19T11:36:28;18.80;52.80
33105;DHT22;19476;51.448;6.674;2023-03-19T11:39:17;18.80;52.70
33105;DHT22;19476;51.448;6.674;2023-03-19T11:42:10;18.80;52.30
33105;DHT22;19476;51.448;6.674;2023-03-19T11:47:57;18.80;52.30
33105;DHT22;19476;51.448;6.674;2023-03-19T11:50:49;18.80;51.70
33105;DHT22;19476;51.448;6.674;2023-03-19T12:12:42;19.30;50.00
33105;DHT22;19476;51.448;6.674;2023-03-19T12:15:23;19.30;48.40
33105;DHT22;19476;51.448;6.674;2023-03-19T12:17:57;19.30;49.10
33105;DHT22;19476;51.448;6.674;2023-03-19T12:29:31;19.50;49.10
33105;DHT22;19476;51.448;6.674;2023-03-19T12:35:01;19.60;48.60
33105;DHT22;19476;51.448;6.674;2023-03-19T12:37:36;19.60;48.60
33105;DHT22;19476;51.448;6.674;2023-03-19T12:42:47;19.80;48.20
33105;DHT22;19476;51.448;6.674;2023-03-19T12:45:25;19.80;49.00
33105;DHT22;19476;51.448;6.674;2023-03-19T12:48:14;19.90;48.80
33105;DHT22;19476;51.448;6.674;2023-03-19T12:50:46;20.20;48.60
33105;DHT22;19476;51.448;6.674;2023-03-19T12:56:11;20.60;47.90
33105;DHT22;19476;51.448;6.674;2023-03-19T12:58:58;20.90;48.00
33105;DHT22;19476;51.448;6.674;2023-03-19T13:01:36;21.10;46.80
33105;DHT22;19476;51.448;6.674;2023-03-19T13:04:09;21.30;46.40
33105;DHT22;19476;51.448;6.674;2023-03-19T13:06:52;21.50;46.40
33105;DHT22;19476;51.448;6.674;2023-03-19T13:09:29;21.60;45.50
33105;DHT22;19476;51.448;6.674;2023-03-19T13:17:27;21.60;45.00
33105;DHT22;19476;51.448;6.674;2023-03-19T13:19:57;21.50;44.70
33105;DHT22;19476;51.448;6.674;2023-03-19T13:22:27;21.50;44.90
33105;DHT22;19476;51.448;6.674;2023-03-19T13:24:57;21.50;44.80
33105;DHT22;19476;51.448;6.674;2023-03-19T13:27:26;21.40;44.60
33105;DHT22;19476;51.448;6.674;2023-03-19T13:32:49;21.40;45.00
33105;DHT22;19476;51.448;6.674;2023-03-19T13:35:36;21.50;44.80
33105;DHT22;19476;51.448;6.674;2023-03-19T13:38:23;21.60;44.40
33105;DHT22;19476;51.448;6.674;2023-03-19T13:40:57;21.80;44.40
33105;DHT22;19476;51.448;6.674;2023-03-19T13:43:39;22.00;44.30
33105;DHT22;19476;51.448;6.674;2023-03-19T14:01:56;22.40;42.30
33105;DHT22;19476;51.448;6.674;2023-03-19T14:04:28;22.30;42.30
33105;DHT22;19476;51.448;6.674;2023-03-19T14:07:05;22.30;42.10
33105;DHT22;19476;51.448;6.674;2023-03-19T14:09:38;22.10;42.10
33105;DHT22;19476;51.448;6.674;2023-03-19T14:28:36;21.40;43.90
33105;DHT22;19476;51.448;6.674;2023-03-19T14:31:04;21.40;44.40
33105;DHT22;19476;51.448;6.674;2023-03-19T14:33:49;21.30;44.70
33105;DHT22;19476;51.448;6.674;2023-03-19T14:36:18;21.30;44.90
33105;DHT22;19476;51.448;6.674;2023-03-19T14:41:22;21.20;45.30
33105;DHT22;19476;51.448;6.674;2023-03-19T14:47:25;21.20;45.70
33105;DHT22;19476;51.448;6.674;2023-03-19T14:55:40;21.20;45.50
33105;DHT22;19476;51.448;6.674;2023-03-19T14:58:09;21.20;45.80
33105;DHT22;19476;51.448;6.674;2023-03-19T15:00:54;21.20;45.90
33105;DHT22;19476;51.448;6.674;2023-03-19T15:03:34;21.10;45.20
33105;DHT22;19476;51.448;6.674;2023-03-19T15:06:06;21.10;45.30
33105;DHT22;19476;51.448;6.674;2023-03-19T15:08:34;21.10;45.00
33105;DHT22;19476;51.448;6.674;2023-03-19T15:16:39;21.00;45.70
33105;DHT22;19476;51.448;6.674;2023-03-19T15:19:09;21.00;45.80
33105;DHT22;19476;51.448;6.674;2023-03-19T15:21:37;20.90;46.00
33105;DHT22;19476;51.448;6.674;2023-03-19T15:24:03;20.90;46.10
33105;DHT22;19476;51.448;6.674;2023-03-19T15:26:31;20.90;46.20
33105;DHT22;19476;51.448;6.674;2023-03-19T15:28:58;20.80;46.10
33105;DHT22;19476;51.448;6.674;2023-03-19T15:31:42;20.80;46.00
33105;DHT22;19476;51.448;6.674;2023-03-19T15:34:22;20.80;45.80
33105;DHT22;19476;51.448;6.674;2023-03-19T15:36:52;20.70;45.70
33105;DHT22;19476;51.448;6.674;2023-03-19T15:39:21;20.70;45.90
33105;DHT22;19476;51.448;6.674;2023-03-19T15:41:50;20.70;45.60
33105;DHT22;19476;51.448;6.674;2023-03-19T15:44:24;20.60;45.60
33105;DHT22;19476;51.448;6.674;2023-03-19T15:46:53;20.60;45.20
33105;DHT22;19476;51.448;6.674;2023-03-19T15:49:38;20.60;45.50
33105;DHT22;19476;51.448;6.674;2023-03-19T15:52:10;20.60;45.50
33105;DHT22;19476;51.448;6.674;2023-03-19T15:54:37;20.50;45.30
33105;DHT22;19476;51.448;6.674;2023-03-19T15:57:05;20.50;45.70
33105;DHT22;19476;51.448;6.674;2023-03-19T15:59:31;20.50;45.60
33105;DHT22;19476;51.448;6.674;2023-03-19T16:02:02;20.50;45.70
33105;DHT22;19476;51.448;6.674;2023-03-19T16:04:29;20.50;45.70
33105;DHT22;19476;51.448;6.674;2023-03-19T16:06:58;20.50;45.30
33105;DHT22;19476;51.448;6.674;2023-03-19T16:09:31;20.40;44.80
33105;DHT22;19476;51.448;6.674;2023-03-19T16:11:58;20.40;44.40
33105;DHT22;19476;51.448;6.674;2023-03-19T16:14:30;20.40;45.30
33105;DHT22;19476;51.448;6.674;2023-03-19T16:17:01;20.30;44.60
33105;DHT22;19476;51.448;6.674;2023-03-19T16:19:34;20.30;44.40
33105;DHT22;19476;51.448;6.674;2023-03-19T16:22:11;20.30;44.40
33105;DHT22;19476;51.448;6.674;2023-03-19T16:24:40;20.20;44.60
33105;DHT22;19476;51.448;6.674;2023-03-19T16:27:12;20.10;44.70
33105;DHT22;19476;51.448;6.674;2023-03-19T16:29:48;20.20;44.90
33105;DHT22;19476;51.448;6.674;2023-03-19T16:32:22;20.20;45.10
33105;DHT22;19476;51.448;6.674;2023-03-19T16:34:52;20.20;45.10
33105;DHT22;19476;51.448;6.674;2023-03-19T16:37:42;20.10;45.10
33105;DHT22;19476;51.448;6.674;2023-03-19T16:42:41;20.10;45.00
33105;DHT22;19476;51.448;6.674;2023-03-19T16:45:21;20.00;45.10
33105;DHT22;19476;51.448;6.674;2023-03-19T16:47:51;20.10;45.10
33105;DHT22;19476;51.448;6.674;2023-03-19T16:50:19;20.00;45.20
33105;DHT22;19476;51.448;6.674;2023-03-19T16:52:46;20.00;45.20
33105;DHT22;19476;51.448;6.674;2023-03-19T16:55:30;20.00;45.40
33105;DHT22;19476;51.448;6.674;2023-03-19T16:58:02;20.00;45.20
33105;DHT22;19476;51.448;6.674;2023-03-19T17:00:31;20.00;45.40
33105;DHT22;19476;51.448;6.674;2023-03-19T17:02:57;20.10;45.40
33105;DHT22;19476;51.448;6.674;2023-03-19T17:05:25;20.00;45.40
33105;DHT22;19476;51.448;6.674;2023-03-19T17:07:51;20.10;45.30
33105;DHT22;19476;51.448;6.674;2023-03-19T17:10:19;20.00;45.60
33105;DHT22;19476;51.448;6.674;2023-03-19T17:12:48;20.00;45.30
33105;DHT22;19476;51.448;6.674;2023-03-19T17:17:52;20.00;45.10
33105;DHT22;19476;51.448;6.674;2023-03-19T17:20:21;20.00;45.30
33105;DHT22;19476;51.448;6.674;2023-03-19T17:22:47;20.00;45.40
33105;DHT22;19476;51.448;6.674;2023-03-19T17:25:14;20.00;45.40
33105;DHT22;19476;51.448;6.674;2023-03-19T17:27:43;19.90;45.50
33105;DHT22;19476;51.448;6.674;2023-03-19T17:30:10;19.90;45.60
33105;DHT22;19476;51.448;6.674;2023-03-19T17:32:38;19.90;45.80
33105;DHT22;19476;51.448;6.674;2023-03-19T17:35:14;19.90;45.90
33105;DHT22;19476;51.448;6.674;2023-03-19T17:37:40;19.80;45.90
33105;DHT22;19476;51.448;6.674;2023-03-19T17:40:18;19.80;46.00
33105;DHT22;19476;51.448;6.674;2023-03-19T17:42:45;19.80;46.20
33105;DHT22;19476;51.448;6.674;2023-03-19T17:45:16;19.70;46.10
33105;DHT22;19476;51.448;6.674;2023-03-19T17:47:45;19.70;46.20
33105;DHT22;19476;51.448;6.674;2023-03-19T17:50:19;19.70;46.30
33105;DHT22;19476;51.448;6.674;2023-03-19T17:52:45;19.70;46.50
33105;DHT22;19476;51.448;6.674;2023-03-19T17:55:20;19.70;46.50
33105;DHT22;19476;51.448;6.674;2023-03-19T17:57:46;19.70;46.60
33105;DHT22;19476;51.448;6.674;2023-03-19T18:00:13;19.70;46.60
33105;DHT22;19476;51.448;6.674;2023-03-19T18:02:40;19.60;46.60
33105;DHT22;19476;51.448;6.674;2023-03-19T18:05:33;19.60;46.70
33105;DHT22;19476;51.448;6.674;2023-03-19T18:07:58;19.60;46.80
33105;DHT22;19476;51.448;6.674;2023-03-19T18:10:26;19.60;46.70
33105;DHT22;19476;51.448;6.674;2023-03-19T18:12:54;19.60;46.90
33105;DHT22;19476;51.448;6.674;2023-03-19T18:15:22;19.50;46.80
33105;DHT22;19476;51.448;6.674;2023-03-19T18:17:50;19.50;46.90